sensor_id;sensor_type;location;lat;lon;timestamp;P1;durP1;ratioP1;P2;durP2;ratioP2
16294;SDS011;8255;49.560;8.244;2023-02-22T00:02:01;8.07;;;6.27;;
16294;SDS011;8255;49.560;8.244;2023-02-22T00:04:49;9.50;;;6.03;;
16294;SDS011;8255;49.560;8.244;2023-02-22T00:07:15;6.90;;;5.77;;
16294;SDS011;8255;49.560;8.244;2023-02-22T00:09:42;6.63;;;5.93;;
16294;SDS011;8255;49.560;8.244;2023-02-22T00:12:08;6.30;;;5.70;;
16294;SDS011;8255;49.560;8.244;2023-02-22T00:14:36;6.60;;;5.80;;
16294;SDS011;8255;49.560;8.244;2023-02-22T00:17:02;7.87;;;5.67;;
16294;SDS011;8255;49.560;8.244;2023-02-22T00:19:28;6.47;;;5.80;;
16294;SDS011;8255;49.560;8.244;2023-02-22T00:21:55;9.93;;;5.93;;
16294;SDS011;8255;49.560;8.244;2023-02-22T00:24:22;7.27;;;5.83;;
16294;SDS011;8255;49.560;8.244;2023-02-22T00:26:48;8.47;;;5.67;;
16294;SDS011;8255;49.560;8.244;2023-02-22T00:29:15;7.27;;;6.10;;
16294;SDS011;8255;49.560;8.244;2023-02-22T00:31:44;6.43;;;5.40;;
16294;SDS011;8255;49.560;8.244;2023-02-22T00:34:10;7.77;;;6.13;;
16294;SDS011;8255;49.560;8.244;2023-02-22T00:36:38;6.47;;;5.83;;
16294;SDS011;8255;49.560;8.244;2023-02-22T00:39:04;6.77;;;5.70;;
16294;SDS011;8255;49.560;8.244;2023-02-22T00:41:32;7.00;;;5.40;;
16294;SDS011;8255;49.560;8.244;2023-02-22T00:43:58;5.90;;;5.20;;
16294;SDS011;8255;49.560;8.244;2023-02-22T00:46:24;6.67;;;5.83;;
16294;SDS011;8255;49.560;8.244;2023-02-22T00:48:53;6.60;;;5.77;;
16294;SDS011;8255;49.560;8.244;2023-02-22T00:51:19;6.83;;;5.63;;
16294;SDS011;8255;49.560;8.244;2023-02-22T00:53:45;6.00;;;5.40;;
16294;SDS011;8255;49.560;8.244;2023-02-22T00:56:12;6.90;;;5.53;;
16294;SDS011;8255;49.560;8.244;2023-02-22T00:58:38;7.43;;;6.00;;
16294;SDS011;8255;49.560;8.244;2023-02-22T01:01:04;7.13;;;5.20;;
16294;SDS011;8255;49.560;8.244;2023-02-22T01:03:31;5.40;;;4.97;;
16294;SDS011;8255;49.560;8.244;2023-02-22T01:06:00;5.60;;;5.00;;
16294;SDS011;8255;49.560;8.244;2023-02-22T01:08:26;5.87;;;5.27;;
16294;SDS011;8255;49.560;8.244;2023-02-22T01:10:55;6.50;;;5.13;;
16294;SDS011;8255;49.560;8.244;2023-02-22T01:13:22;7.30;;;5.33;;
16294;SDS011;8255;49.560;8.244;2023-02-22T01:15:48;8.33;;;6.07;;
16294;SDS011;8255;49.560;8.244;2023-02-22T01:18:15;7.63;;;5.70;;
16294;SDS011;8255;49.560;8.244;2023-02-22T01:20:42;6.53;;;5.60;;
16294;SDS011;8255;49.560;8.244;2023-02-22T01:23:15;6.07;;;5.43;;
16294;SDS011;8255;49.560;8.244;2023-02-22T01:25:41;7.30;;;5.03;;
16294;SDS011;8255;49.560;8.244;2023-02-22T01:28:08;5.37;;;4.87;;
16294;SDS011;8255;49.560;8.244;2023-02-22T01:30:35;6.17;;;5.57;;
16294;SDS011;8255;49.560;8.244;2023-02-22T01:33:03;7.10;;;5.80;;
16294;SDS011;8255;49.560;8.244;2023-02-22T01:35:32;6.73;;;5.13;;
16294;SDS011;8255;49.560;8.244;2023-02-22T01:37:59;5.87;;;5.00;;
16294;SDS011;8255;49.560;8.244;2023-02-22T01:40:27;6.53;;;5.40;;
16294;SDS011;8255;49.560;8.244;2023-02-22T01:42:55;5.90;;;5.30;;
16294;SDS011;8255;49.560;8.244;2023-02-22T01:45:42;7.53;;;5.80;;
16294;SDS011;8255;49.560;8.244;2023-02-22T01:48:11;7.90;;;5.47;;
16294;SDS011;8255;49.560;8.244;2023-02-22T01:50:40;5.60;;;5.10;;
16294;SDS011;8255;49.560;8.244;2023-02-22T01:53:07;7.20;;;5.17;;
16294;SDS011;8255;49.560;8.244;2023-02-22T01:55:35;5.83;;;5.20;;
16294;SDS011;8255;49.560;8.244;2023-02-22T01:58:03;8.80;;;5.33;;
16294;SDS011;8255;49.560;8.244;2023-02-22T02:00:30;6.07;;;5.40;;
16294;SDS011;8255;49.560;8.244;2023-02-22T02:02:57;7.27;;;5.60;;
16294;SDS011;8255;49.560;8.244;2023-02-22T02:05:24;6.93;;;5.47;;
16294;SDS011;8255;49.560;8.244;2023-02-22T02:07:50;6.23;;;5.23;;
16294;SDS011;8255;49.560;8.244;2023-02-22T02:10:18;8.60;;;5.03;;
16294;SDS011;8255;49.560;8.244;2023-02-22T02:12:47;5.70;;;5.00;;
16294;SDS011;8255;49.560;8.244;2023-02-22T02:15:19;8.83;;;5.20;;
16294;SDS011;8255;49.560;8.244;2023-02-22T02:17:46;6.33;;;5.03;;
16294;SDS011;8255;49.560;8.244;2023-02-22T02:20:16;8.67;;;5.90;;
16294;SDS011;8255;49.560;8.244;2023-02-22T02:22:46;8.60;;;6.57;;
16294;SDS011;8255;49.560;8.244;2023-02-22T02:25:32;7.00;;;6.30;;
16294;SDS011;8255;49.560;8.244;2023-02-22T02:31:07;8.33;;;7.57;;
16294;SDS011;8255;49.560;8.244;2023-02-22T02:33:40;8.40;;;6.60;;
16294;SDS011;8255;49.560;8.244;2023-02-22T02:36:10;16.10;;;7.97;;
16294;SDS011;8255;49.560;8.244;2023-02-22T02:38:40;7.83;;;6.73;;
16294;SDS011;8255;49.560;8.244;2023-02-22T02:41:11;8.33;;;7.10;;
16294;SDS011;8255;49.560;8.244;2023-02-22T02:43:40;8.20;;;6.80;;
16294;SDS011;8255;49.560;8.244;2023-02-22T02:46:08;7.10;;;6.37;;
16294;SDS011;8255;49.560;8.244;2023-02-22T02:48:36;8.10;;;7.00;;
16294;SDS011;8255;49.560;8.244;2023-02-22T02:51:05;8.07;;;6.70;;
16294;SDS011;8255;49.560;8.244;2023-02-22T02:53:34;8.43;;;6.83;;
16294;SDS011;8255;49.560;8.244;2023-02-22T02:56:01;8.50;;;6.63;;
16294;SDS011;8255;49.560;8.244;2023-02-22T02:58:27;9.20;;;7.33;;
16294;SDS011;8255;49.560;8.244;2023-02-22T03:00:55;8.33;;;7.23;;
16294;SDS011;8255;49.560;8.244;2023-02-22T03:03:26;9.23;;;6.97;;
16294;SDS011;8255;49.560;8.244;2023-02-22T03:06:10;13.80;;;6.73;;
16294;SDS011;8255;49.560;8.244;2023-02-22T03:08:42;8.83;;;7.17;;
16294;SDS011;8255;49.560;8.244;2023-02-22T03:11:12;7.43;;;6.53;;
16294;SDS011;8255;49.560;8.244;2023-02-22T03:13:44;8.67;;;7.23;;
16294;SDS011;8255;49.560;8.244;2023-02-22T03:16:15;9.67;;;7.30;;
16294;SDS011;8255;49.560;8.244;2023-02-22T03:18:46;8.57;;;6.47;;
16294;SDS011;8255;49.560;8.244;2023-02-22T03:21:18;7.63;;;6.50;;
16294;SDS011;8255;49.560;8.244;2023-02-22T03:23:49;8.80;;;6.97;;
16294;SDS011;8255;49.560;8.244;2023-02-22T03:26:17;8.03;;;6.77;;
16294;SDS011;8255;49.560;8.244;2023-02-22T03:28:49;9.30;;;6.53;;
16294;SDS011;8255;49.560;8.244;2023-02-22T03:31:18;9.70;;;6.90;;
16294;SDS011;8255;49.560;8.244;2023-02-22T03:33:49;8.00;;;6.40;;
16294;SDS011;8255;49.560;8.244;2023-02-22T03:36:18;10.03;;;6.90;;
16294;SDS011;8255;49.560;8.244;2023-02-22T03:38:52;12.17;;;7.10;;
16294;SDS011;8255;49.560;8.244;2023-02-22T03:41:20;8.93;;;7.23;;
16294;SDS011;8255;49.560;8.244;2023-02-22T03:43:50;8.53;;;6.43;;
16294;SDS011;8255;49.560;8.244;2023-02-22T03:46:18;10.10;;;6.70;;
16294;SDS011;8255;49.560;8.244;2023-02-22T03:48:47;9.27;;;6.73;;
16294;SDS011;8255;49.560;8.244;2023-02-22T03:51:15;8.63;;;7.10;;
16294;SDS011;8255;49.560;8.244;2023-02-22T03:53:45;8.90;;;6.97;;
16294;SDS011;8255;49.560;8.244;2023-02-22T03:56:14;9.23;;;6.80;;
16294;SDS011;8255;49.560;8.244;2023-02-22T03:58:44;7.70;;;6.90;;
16294;SDS011;8255;49.560;8.244;2023-02-22T04:01:12;7.23;;;6.37;;
16294;SDS011;8255;49.560;8.244;2023-02-22T04:03:39;9.17;;;5.93;;
16294;SDS011;8255;49.560;8.244;2023-02-22T04:06:06;7.20;;;6.33;;
16294;SDS011;8255;49.560;8.244;2023-02-22T04:08:33;7.07;;;6.20;;
16294;SDS011;8255;49.560;8.244;2023-02-22T04:11:01;9.50;;;6.73;;
16294;SDS011;8255;49.560;8.244;2023-02-22T04:13:29;8.60;;;6.70;;
16294;SDS011;8255;49.560;8.244;2023-02-22T04:15:56;8.73;;;6.93;;
16294;SDS011;8255;49.560;8.244;2023-02-22T04:18:23;8.63;;;6.77;;
16294;SDS011;8255;49.560;8.244;2023-02-22T04:20:49;7.50;;;6.60;;
16294;SDS011;8255;49.560;8.244;2023-02-22T04:23:28;8.80;;;6.00;;
16294;SDS011;8255;49.560;8.244;2023-02-22T04:25:56;6.73;;;6.07;;
16294;SDS011;8255;49.560;8.244;2023-02-22T04:28:23;8.47;;;6.30;;
16294;SDS011;8255;49.560;8.244;2023-02-22T04:31:03;7.13;;;6.43;;
16294;SDS011;8255;49.560;8.244;2023-02-22T04:33:30;7.17;;;6.33;;
16294;SDS011;8255;49.560;8.244;2023-02-22T04:35:57;7.40;;;6.20;;
16294;SDS011;8255;49.560;8.244;2023-02-22T04:38:24;8.23;;;6.40;;
16294;SDS011;8255;49.560;8.244;2023-02-22T04:40:53;9.93;;;7.33;;
16294;SDS011;8255;49.560;8.244;2023-02-22T04:43:20;12.27;;;10.97;;
16294;SDS011;8255;49.560;8.244;2023-02-22T04:45:50;7.90;;;7.10;;
16294;SDS011;8255;49.560;8.244;2023-02-22T04:48:16;8.13;;;5.93;;
16294;SDS011;8255;49.560;8.244;2023-02-22T04:50:43;7.27;;;6.33;;
16294;SDS011;8255;49.560;8.244;2023-02-22T04:53:09;6.63;;;6.00;;
16294;SDS011;8255;49.560;8.244;2023-02-22T04:55:37;6.50;;;5.90;;
16294;SDS011;8255;49.560;8.244;2023-02-22T04:58:03;6.00;;;5.40;;
16294;SDS011;8255;49.560;8.244;2023-02-22T05:00:30;6.30;;;5.57;;
16294;SDS011;8255;49.560;8.244;2023-02-22T05:03:01;6.63;;;5.93;;
16294;SDS011;8255;49.560;8.244;2023-02-22T05:05:27;8.60;;;6.20;;
16294;SDS011;8255;49.560;8.244;2023-02-22T05:07:53;6.23;;;5.63;;
16294;SDS011;8255;49.560;8.244;2023-02-22T05:10:20;7.10;;;5.30;;
16294;SDS011;8255;49.560;8.244;2023-02-22T05:12:46;5.77;;;5.27;;
16294;SDS011;8255;49.560;8.244;2023-02-22T05:15:14;6.07;;;5.37;;
16294;SDS011;8255;49.560;8.244;2023-02-22T05:17:41;7.03;;;5.20;;
16294;SDS011;8255;49.560;8.244;2023-02-22T05:20:10;7.83;;;5.30;;
16294;SDS011;8255;49.560;8.244;2023-02-22T05:22:41;7.67;;;5.70;;
16294;SDS011;8255;49.560;8.244;2023-02-22T05:25:07;6.40;;;5.67;;
16294;SDS011;8255;49.560;8.244;2023-02-22T05:27:35;7.87;;;6.07;;
16294;SDS011;8255;49.560;8.244;2023-02-22T05:30:02;9.07;;;6.13;;
16294;SDS011;8255;49.560;8.244;2023-02-22T05:32:29;7.73;;;5.77;;
16294;SDS011;8255;49.560;8.244;2023-02-22T05:34:55;7.23;;;5.80;;
16294;SDS011;8255;49.560;8.244;2023-02-22T05:37:23;8.50;;;7.10;;
16294;SDS011;8255;49.560;8.244;2023-02-22T05:39:49;9.37;;;8.43;;
16294;SDS011;8255;49.560;8.244;2023-02-22T05:42:15;11.57;;;10.37;;
16294;SDS011;8255;49.560;8.244;2023-02-22T05:44:43;10.80;;;8.90;;
16294;SDS011;8255;49.560;8.244;2023-02-22T05:47:09;13.97;;;9.20;;
16294;SDS011;8255;49.560;8.244;2023-02-22T05:49:36;11.57;;;8.20;;
16294;SDS011;8255;49.560;8.244;2023-02-22T05:52:02;10.87;;;7.53;;
16294;SDS011;8255;49.560;8.244;2023-02-22T05:54:30;8.83;;;7.33;;
16294;SDS011;8255;49.560;8.244;2023-02-22T05:56:56;8.43;;;7.17;;
16294;SDS011;8255;49.560;8.244;2023-02-22T05:59:22;11.43;;;7.67;;
16294;SDS011;8255;49.560;8.244;2023-02-22T06:01:49;10.47;;;7.63;;
16294;SDS011;8255;49.560;8.244;2023-02-22T06:04:15;11.77;;;7.60;;
16294;SDS011;8255;49.560;8.244;2023-02-22T06:06:41;9.47;;;7.60;;
16294;SDS011;8255;49.560;8.244;2023-02-22T06:09:08;9.80;;;7.87;;
16294;SDS011;8255;49.560;8.244;2023-02-22T06:11:35;12.80;;;7.97;;
16294;SDS011;8255;49.560;8.244;2023-02-22T06:14:02;13.43;;;8.70;;
16294;SDS011;8255;49.560;8.244;2023-02-22T06:16:28;15.10;;;7.77;;
16294;SDS011;8255;49.560;8.244;2023-02-22T06:18:55;19.50;;;8.47;;
16294;SDS011;8255;49.560;8.244;2023-02-22T06:21:23;14.27;;;8.30;;
16294;SDS011;8255;49.560;8.244;2023-02-22T06:23:49;16.10;;;8.87;;
16294;SDS011;8255;49.560;8.244;2023-02-22T06:26:16;9.53;;;7.33;;
16294;SDS011;8255;49.560;8.244;2023-02-22T06:28:44;12.23;;;8.03;;
16294;SDS011;8255;49.560;8.244;2023-02-22T06:31:10;9.93;;;8.47;;
16294;SDS011;8255;49.560;8.244;2023-02-22T06:33:37;13.93;;;10.13;;
16294;SDS011;8255;49.560;8.244;2023-02-22T06:36:03;12.77;;;9.13;;
16294;SDS011;8255;49.560;8.244;2023-02-22T06:38:30;13.33;;;9.33;;
16294;SDS011;8255;49.560;8.244;2023-02-22T06:40:56;11.77;;;9.27;;
16294;SDS011;8255;49.560;8.244;2023-02-22T06:43:23;9.67;;;7.63;;
16294;SDS011;8255;49.560;8.244;2023-02-22T06:45:51;9.67;;;7.93;;
16294;SDS011;8255;49.560;8.244;2023-02-22T06:48:17;17.10;;;10.30;;
16294;SDS011;8255;49.560;8.244;2023-02-22T06:50:44;10.57;;;8.87;;
16294;SDS011;8255;49.560;8.244;2023-02-22T06:53:10;16.07;;;10.23;;
16294;SDS011;8255;49.560;8.244;2023-02-22T06:55:37;11.27;;;10.00;;
16294;SDS011;8255;49.560;8.244;2023-02-22T06:58:03;10.53;;;8.30;;
16294;SDS011;8255;49.560;8.244;2023-02-22T07:00:30;8.63;;;7.70;;
16294;SDS011;8255;49.560;8.244;2023-02-22T07:02:58;9.70;;;7.67;;
16294;SDS011;8255;49.560;8.244;2023-02-22T07:05:25;11.53;;;7.60;;
16294;SDS011;8255;49.560;8.244;2023-02-22T07:07:52;9.23;;;7.40;;
16294;SDS011;8255;49.560;8.244;2023-02-22T07:10:19;10.93;;;7.83;;
16294;SDS011;8255;49.560;8.244;2023-02-22T07:12:46;11.20;;;8.10;;
16294;SDS011;8255;49.560;8.244;2023-02-22T07:15:13;12.50;;;8.73;;
16294;SDS011;8255;49.560;8.244;2023-02-22T07:17:39;15.00;;;9.10;;
16294;SDS011;8255;49.560;8.244;2023-02-22T07:20:08;11.13;;;8.97;;
16294;SDS011;8255;49.560;8.244;2023-02-22T07:22:35;11.47;;;8.73;;
16294;SDS011;8255;49.560;8.244;2023-02-22T07:25:02;10.13;;;8.23;;
16294;SDS011;8255;49.560;8.244;2023-02-22T07:27:28;13.30;;;9.10;;
16294;SDS011;8255;49.560;8.244;2023-02-22T07:29:54;11.30;;;9.17;;
16294;SDS011;8255;49.560;8.244;2023-02-22T07:32:20;16.17;;;9.43;;
16294;SDS011;8255;49.560;8.244;2023-02-22T07:34:47;11.13;;;8.43;;
16294;SDS011;8255;49.560;8.244;2023-02-22T07:37:15;9.83;;;8.13;;
16294;SDS011;8255;49.560;8.244;2023-02-22T07:39:41;10.33;;;8.60;;
16294;SDS011;8255;49.560;8.244;2023-02-22T07:42:08;14.33;;;9.10;;
16294;SDS011;8255;49.560;8.244;2023-02-22T07:44:35;13.33;;;8.70;;
16294;SDS011;8255;49.560;8.244;2023-02-22T07:47:02;11.67;;;8.50;;
16294;SDS011;8255;49.560;8.244;2023-02-22T07:49:28;13.13;;;8.93;;
16294;SDS011;8255;49.560;8.244;2023-02-22T07:51:55;10.13;;;8.07;;
16294;SDS011;8255;49.560;8.244;2023-02-22T07:54:22;7.53;;;6.67;;
16294;SDS011;8255;49.560;8.244;2023-02-22T07:56:49;8.43;;;7.43;;
16294;SDS011;8255;49.560;8.244;2023-02-22T07:59:15;15.80;;;7.87;;
16294;SDS011;8255;49.560;8.244;2023-02-22T08:01:41;11.70;;;7.70;;
16294;SDS011;8255;49.560;8.244;2023-02-22T08:04:08;9.20;;;7.07;;
16294;SDS011;8255;49.560;8.244;2023-02-22T08:06:34;8.20;;;7.17;;
16294;SDS011;8255;49.560;8.244;2023-02-22T08:09:00;14.13;;;8.20;;
16294;SDS011;8255;49.560;8.244;2023-02-22T08:11:28;11.50;;;8.07;;
16294;SDS011;8255;49.560;8.244;2023-02-22T08:13:54;9.30;;;8.10;;
16294;SDS011;8255;49.560;8.244;2023-02-22T08:16:21;11.75;;;9.02;;
16294;SDS011;8255;49.560;8.244;2023-02-22T08:18:47;13.55;;;9.45;;
16294;SDS011;8255;49.560;8.244;2023-02-22T08:21:14;14.45;;;10.02;;
16294;SDS011;8255;49.560;8.244;2023-02-22T08:23:40;12.73;;;8.82;;
16294;SDS011;8255;49.560;8.244;2023-02-22T08:26:07;11.73;;;8.85;;
16294;SDS011;8255;49.560;8.244;2023-02-22T08:28:35;14.73;;;9.77;;
16294;SDS011;8255;49.560;8.244;2023-02-22T08:31:01;12.60;;;9.15;;
16294;SDS011;8255;49.560;8.244;2023-02-22T08:33:31;12.95;;;9.35;;
16294;SDS011;8255;49.560;8.244;2023-02-22T08:35:57;12.85;;;9.50;;
16294;SDS011;8255;49.560;8.244;2023-02-22T08:38:24;11.25;;;9.00;;
16294;SDS011;8255;49.560;8.244;2023-02-22T08:40:51;12.75;;;9.70;;
16294;SDS011;8255;49.560;8.244;2023-02-22T08:43:18;11.82;;;8.82;;
16294;SDS011;8255;49.560;8.244;2023-02-22T08:45:46;10.35;;;9.35;;
16294;SDS011;8255;49.560;8.244;2023-02-22T08:48:13;10.00;;;9.00;;
16294;SDS011;8255;49.560;8.244;2023-02-22T08:50:40;10.82;;;8.90;;
16294;SDS011;8255;49.560;8.244;2023-02-22T08:53:07;9.50;;;8.60;;
16294;SDS011;8255;49.560;8.244;2023-02-22T08:55:34;12.98;;;10.05;;
16294;SDS011;8255;49.560;8.244;2023-02-22T08:58:01;12.32;;;11.00;;
16294;SDS011;8255;49.560;8.244;2023-02-22T09:00:28;11.50;;;10.18;;
16294;SDS011;8255;49.560;8.244;2023-02-22T09:02:58;15.40;;;11.05;;
16294;SDS011;8255;49.560;8.244;2023-02-22T09:05:25;12.50;;;11.05;;
16294;SDS011;8255;49.560;8.244;2023-02-22T09:07:51;15.50;;;11.70;;
16294;SDS011;8255;49.560;8.244;2023-02-22T09:10:20;14.65;;;10.88;;
16294;SDS011;8255;49.560;8.244;2023-02-22T09:12:48;12.57;;;11.27;;
16294;SDS011;8255;49.560;8.244;2023-02-22T09:15:15;12.98;;;11.07;;
16294;SDS011;8255;49.560;8.244;2023-02-22T09:17:41;14.32;;;11.55;;
16294;SDS011;8255;49.560;8.244;2023-02-22T09:20:09;12.18;;;10.90;;
16294;SDS011;8255;49.560;8.244;2023-02-22T09:22:36;14.10;;;10.95;;
16294;SDS011;8255;49.560;8.244;2023-02-22T09:25:03;12.60;;;10.35;;
16294;SDS011;8255;49.560;8.244;2023-02-22T09:27:29;12.07;;;10.80;;
16294;SDS011;8255;49.560;8.244;2023-02-22T09:29:56;14.10;;;10.27;;
16294;SDS011;8255;49.560;8.244;2023-02-22T09:32:22;11.65;;;10.45;;
16294;SDS011;8255;49.560;8.244;2023-02-22T09:34:51;11.90;;;10.52;;
16294;SDS011;8255;49.560;8.244;2023-02-22T09:37:19;12.27;;;10.90;;
16294;SDS011;8255;49.560;8.244;2023-02-22T09:39:45;11.85;;;10.48;;
16294;SDS011;8255;49.560;8.244;2023-02-22T09:42:13;12.35;;;11.05;;
16294;SDS011;8255;49.560;8.244;2023-02-22T09:44:42;14.40;;;11.77;;
16294;SDS011;8255;49.560;8.244;2023-02-22T09:47:11;13.13;;;11.73;;
16294;SDS011;8255;49.560;8.244;2023-02-22T09:49:40;14.10;;;12.60;;
16294;SDS011;8255;49.560;8.244;2023-02-22T09:52:13;13.57;;;11.75;;
16294;SDS011;8255;49.560;8.244;2023-02-22T09:54:44;13.40;;;12.00;;
16294;SDS011;8255;49.560;8.244;2023-02-22T09:57:17;15.68;;;12.98;;
16294;SDS011;8255;49.560;8.244;2023-02-22T09:59:45;13.23;;;11.77;;
16294;SDS011;8255;49.560;8.244;2023-02-22T10:02:21;14.38;;;12.88;;
16294;SDS011;8255;49.560;8.244;2023-02-22T10:04:50;13.65;;;12.15;;
16294;SDS011;8255;49.560;8.244;2023-02-22T10:07:22;13.85;;;12.45;;
16294;SDS011;8255;49.560;8.244;2023-02-22T10:09:52;14.23;;;11.98;;
16294;SDS011;8255;49.560;8.244;2023-02-22T10:12:28;14.10;;;12.68;;
16294;SDS011;8255;49.560;8.244;2023-02-22T10:15:03;13.25;;;11.82;;
16294;SDS011;8255;49.560;8.244;2023-02-22T10:17:32;14.85;;;12.10;;
16294;SDS011;8255;49.560;8.244;2023-02-22T10:20:11;15.57;;;12.07;;
16294;SDS011;8255;49.560;8.244;2023-02-22T10:22:41;17.60;;;11.45;;
16294;SDS011;8255;49.560;8.244;2023-02-22T10:25:12;12.57;;;11.27;;
16294;SDS011;8255;49.560;8.244;2023-02-22T10:27:41;16.08;;;11.77;;
16294;SDS011;8255;49.560;8.244;2023-02-22T10:30:13;13.18;;;11.73;;
16294;SDS011;8255;49.560;8.244;2023-02-22T10:32:42;15.65;;;11.88;;
16294;SDS011;8255;49.560;8.244;2023-02-22T10:35:15;18.08;;;11.48;;
16294;SDS011;8255;49.560;8.244;2023-02-22T10:37:43;13.85;;;12.45;;
16294;SDS011;8255;49.560;8.244;2023-02-22T10:40:14;14.30;;;12.88;;
16294;SDS011;8255;49.560;8.244;2023-02-22T10:42:42;13.35;;;11.95;;
16294;SDS011;8255;49.560;8.244;2023-02-22T10:45:13;12.98;;;11.70;;
16294;SDS011;8255;49.560;8.244;2023-02-22T10:47:41;13.45;;;11.57;;
16294;SDS011;8255;49.560;8.244;2023-02-22T10:50:11;14.00;;;11.48;;
16294;SDS011;8255;49.560;8.244;2023-02-22T10:52:38;12.85;;;11.52;;
16294;SDS011;8255;49.560;8.244;2023-02-22T10:55:05;12.38;;;11.07;;
16294;SDS011;8255;49.560;8.244;2023-02-22T10:57:37;13.10;;;11.80;;
16294;SDS011;8255;49.560;8.244;2023-02-22T11:00:13;12.35;;;11.07;;
16294;SDS011;8255;49.560;8.244;2023-02-22T11:02:48;12.40;;;11.20;;
16294;SDS011;8255;49.560;8.244;2023-02-22T11:05:25;16.27;;;11.23;;
16294;SDS011;8255;49.560;8.244;2023-02-22T11:07:52;12.32;;;11.13;;
16294;SDS011;8255;49.560;8.244;2023-02-22T11:10:39;12.10;;;11.00;;
16294;SDS011;8255;49.560;8.244;2023-02-22T11:13:16;12.35;;;10.38;;
16294;SDS011;8255;49.560;8.244;2023-02-22T11:15:43;12.13;;;10.75;;
16294;SDS011;8255;49.560;8.244;2023-02-22T11:18:15;13.20;;;10.60;;
16294;SDS011;8255;49.560;8.244;2023-02-22T11:20:46;11.85;;;10.25;;
16294;SDS011;8255;49.560;8.244;2023-02-22T11:23:13;11.15;;;10.05;;
16294;SDS011;8255;49.560;8.244;2023-02-22T11:25:47;12.27;;;10.40;;
16294;SDS011;8255;49.560;8.244;2023-02-22T11:28:19;12.30;;;10.60;;
16294;SDS011;8255;49.560;8.244;2023-02-22T11:30:55;12.52;;;10.15;;
16294;SDS011;8255;49.560;8.244;2023-02-22T11:33:22;11.68;;;10.40;;
16294;SDS011;8255;49.560;8.244;2023-02-22T11:35:50;10.88;;;9.77;;
16294;SDS011;8255;49.560;8.244;2023-02-22T11:38:18;11.38;;;10.18;;
16294;SDS011;8255;49.560;8.244;2023-02-22T11:40:46;11.60;;;10.45;;
16294;SDS011;8255;49.560;8.244;2023-02-22T11:43:14;11.95;;;10.50;;
16294;SDS011;8255;49.560;8.244;2023-02-22T11:45:53;14.02;;;11.45;;
16294;SDS011;8255;49.560;8.244;2023-02-22T11:48:20;14.10;;;10.35;;
16294;SDS011;8255;49.560;8.244;2023-02-22T11:50:52;15.68;;;11.30;;
16294;SDS011;8255;49.560;8.244;2023-02-22T11:53:24;12.00;;;9.85;;
16294;SDS011;8255;49.560;8.244;2023-02-22T11:55:55;11.15;;;10.05;;
16294;SDS011;8255;49.560;8.244;2023-02-22T11:58:29;11.27;;;10.18;;
16294;SDS011;8255;49.560;8.244;2023-02-22T12:01:01;10.93;;;9.82;;
16294;SDS011;8255;49.560;8.244;2023-02-22T12:03:38;11.18;;;10.15;;
16294;SDS011;8255;49.560;8.244;2023-02-22T12:06:17;12.65;;;10.18;;
16294;SDS011;8255;49.560;8.244;2023-02-22T12:08:52;10.15;;;9.15;;
16294;SDS011;8255;49.560;8.244;2023-02-22T12:11:24;11.23;;;8.80;;
16294;SDS011;8255;49.560;8.244;2023-02-22T12:16:42;11.38;;;9.15;;
16294;SDS011;8255;49.560;8.244;2023-02-22T12:19:14;11.88;;;9.38;;
16294;SDS011;8255;49.560;8.244;2023-02-22T12:21:46;10.20;;;9.20;;
16294;SDS011;8255;49.560;8.244;2023-02-22T12:24:16;10.02;;;9.02;;
16294;SDS011;8255;49.560;8.244;2023-02-22T12:26:45;10.27;;;8.93;;
16294;SDS011;8255;49.560;8.244;2023-02-22T12:29:20;9.55;;;8.70;;
16294;SDS011;8255;49.560;8.244;2023-02-22T12:31:53;10.38;;;9.20;;
16294;SDS011;8255;49.560;8.244;2023-02-22T12:34:24;9.88;;;8.48;;
16294;SDS011;8255;49.560;8.244;2023-02-22T12:36:54;9.63;;;8.50;;
16294;SDS011;8255;49.560;8.244;2023-02-22T12:39:23;9.32;;;8.52;;
16294;SDS011;8255;49.560;8.244;2023-02-22T12:41:53;10.93;;;8.35;;
16294;SDS011;8255;49.560;8.244;2023-02-22T12:44:21;11.68;;;9.32;;
16294;SDS011;8255;49.560;8.244;2023-02-22T12:46:49;11.05;;;8.52;;
16294;SDS011;8255;49.560;8.244;2023-02-22T12:49:19;10.05;;;8.07;;
16294;SDS011;8255;49.560;8.244;2023-02-22T12:51:56;9.32;;;8.43;;
16294;SDS011;8255;49.560;8.244;2023-02-22T12:54:24;9.90;;;8.60;;
16294;SDS011;8255;49.560;8.244;2023-02-22T12:56:54;9.73;;;8.48;;
16294;SDS011;8255;49.560;8.244;2023-02-22T12:59:24;9.63;;;8.70;;
16294;SDS011;8255;49.560;8.244;2023-02-22T13:01:52;8.60;;;7.63;;
16294;SDS011;8255;49.560;8.244;2023-02-22T13:04:21;9.70;;;7.53;;
16294;SDS011;8255;49.560;8.244;2023-02-22T13:06:50;10.18;;;8.27;;
16294;SDS011;8255;49.560;8.244;2023-02-22T13:09:30;8.88;;;7.82;;
16294;SDS011;8255;49.560;8.244;2023-02-22T13:11:59;9.02;;;8.18;;
16294;SDS011;8255;49.560;8.244;2023-02-22T13:14:34;9.20;;;8.30;;
16294;SDS011;8255;49.560;8.244;2023-02-22T13:17:08;8.50;;;7.47;;
16294;SDS011;8255;49.560;8.244;2023-02-22T13:19:41;9.25;;;7.85;;
16294;SDS011;8255;49.560;8.244;2023-02-22T13:22:09;10.68;;;8.18;;
16294;SDS011;8255;49.560;8.244;2023-02-22T13:24:40;9.45;;;8.45;;
16294;SDS011;8255;49.560;8.244;2023-02-22T13:27:09;10.98;;;8.50;;
16294;SDS011;8255;49.560;8.244;2023-02-22T13:29:37;9.77;;;8.43;;
16294;SDS011;8255;49.560;8.244;2023-02-22T13:32:10;9.93;;;8.57;;
16294;SDS011;8255;49.560;8.244;2023-02-22T13:34:51;11.68;;;8.40;;
16294;SDS011;8255;49.560;8.244;2023-02-22T13:37:22;10.05;;;8.82;;
16294;SDS011;8255;49.560;8.244;2023-02-22T13:39:59;9.27;;;8.38;;
16294;SDS011;8255;49.560;8.244;2023-02-22T13:42:40;9.77;;;8.77;;
16294;SDS011;8255;49.560;8.244;2023-02-22T13:45:26;11.20;;;8.48;;
16294;SDS011;8255;49.560;8.244;2023-02-22T13:48:16;9.57;;;8.55;;
16294;SDS011;8255;49.560;8.244;2023-02-22T13:51:08;11.02;;;8.93;;
16294;SDS011;8255;49.560;8.244;2023-02-22T13:53:38;13.35;;;9.20;;
16294;SDS011;8255;49.560;8.244;2023-02-22T13:56:08;9.60;;;8.70;;
16294;SDS011;8255;49.560;8.244;2023-02-22T13:58:45;10.75;;;9.00;;
16294;SDS011;8255;49.560;8.244;2023-02-22T14:01:21;11.60;;;9.25;;
16294;SDS011;8255;49.560;8.244;2023-02-22T14:06:44;10.95;;;9.15;;
16294;SDS011;8255;49.560;8.244;2023-02-22T14:09:12;13.48;;;9.40;;
16294;SDS011;8255;49.560;8.244;2023-02-22T14:11:43;9.93;;;9.02;;
16294;SDS011;8255;49.560;8.244;2023-02-22T14:14:14;10.45;;;9.23;;
16294;SDS011;8255;49.560;8.244;2023-02-22T14:16:41;11.73;;;9.43;;
16294;SDS011;8255;49.560;8.244;2023-02-22T14:19:12;9.95;;;9.05;;
16294;SDS011;8255;49.560;8.244;2023-02-22T14:21:54;10.73;;;9.63;;
16294;SDS011;8255;49.560;8.244;2023-02-22T14:24:21;11.10;;;10.07;;
16294;SDS011;8255;49.560;8.244;2023-02-22T14:26:55;11.30;;;9.80;;
16294;SDS011;8255;49.560;8.244;2023-02-22T14:29:21;10.68;;;9.57;;
16294;SDS011;8255;49.560;8.244;2023-02-22T14:31:55;11.73;;;9.65;;
16294;SDS011;8255;49.560;8.244;2023-02-22T14:34:30;10.68;;;9.57;;
16294;SDS011;8255;49.560;8.244;2023-02-22T14:37:07;14.48;;;10.70;;
16294;SDS011;8255;49.560;8.244;2023-02-22T14:39:35;12.65;;;10.02;;
16294;SDS011;8255;49.560;8.244;2023-02-22T14:42:04;11.20;;;10.05;;
16294;SDS011;8255;49.560;8.244;2023-02-22T14:44:33;11.90;;;9.70;;
16294;SDS011;8255;49.560;8.244;2023-02-22T14:47:02;11.15;;;10.02;;
16294;SDS011;8255;49.560;8.244;2023-02-22T14:49:29;9.98;;;8.88;;
16294;SDS011;8255;49.560;8.244;2023-02-22T14:51:58;10.18;;;8.10;;
16294;SDS011;8255;49.560;8.244;2023-02-22T14:54:29;9.73;;;8.25;;
16294;SDS011;8255;49.560;8.244;2023-02-22T14:56:59;8.57;;;7.65;;
16294;SDS011;8255;49.560;8.244;2023-02-22T14:59:36;9.20;;;7.60;;
16294;SDS011;8255;49.560;8.244;2023-02-22T15:02:10;11.05;;;8.13;;
16294;SDS011;8255;49.560;8.244;2023-02-22T15:04:37;8.52;;;7.43;;
16294;SDS011;8255;49.560;8.244;2023-02-22T15:07:08;8.45;;;7.53;;
16294;SDS011;8255;49.560;8.244;2023-02-22T15:09:45;8.77;;;7.38;;
16294;SDS011;8255;49.560;8.244;2023-02-22T15:12:14;8.65;;;7.57;;